sensor_id;sensor_type;location;lat;lon;timestamp;temperature;humidity
76102;SHT30;64830;46.910;6.354;2023-04-01T00:01:07;6.20;83.52
76102;SHT30;64830;46.910;6.354;2023-04-01T00:03:33;6.21;83.15
76102;SHT30;64830;46.910;6.354;2023-04-01T00:05:59;6.18;83.30
76102;SHT30;64830;46.910;6.354;2023-04-01T00:08:26;6.18;83.22
76102;SHT30;64830;46.910;6.354;2023-04-01T00:10:52;6.21;83.04
76102;SHT30;64830;46.910;6.354;2023-04-01T00:13:18;6.21;83.23
76102;SHT30;64830;46.910;6.354;2023-04-01T00:15:44;6.18;82.57
76102;SHT30;64830;46.910;6.354;2023-04-01T00:18:10;6.20;83.39
76102;SHT30;64830;46.910;6.354;2023-04-01T00:20:36;6.20;83.17
76102;SHT30;64830;46.910;6.354;2023-04-01T00:23:02;6.20;82.99
76102;SHT30;64830;46.910;6.354;2023-04-01T00:25:27;6.18;82.96
76102;SHT30;64830;46.910;6.354;2023-04-01T00:27:53;6.20;82.39
76102;SHT30;64830;46.910;6.354;2023-04-01T00:30:19;6.20;82.60
76102;SHT30;64830;46.910;6.354;2023-04-01T00:32:45;6.20;82.13
76102;SHT30;64830;46.910;6.354;2023-04-01T00:35:11;6.21;82.75
76102;SHT30;64830;46.910;6.354;2023-04-01T00:37:38;6.21;82.36
76102;SHT30;64830;46.910;6.354;2023-04-01T00:40:06;6.20;82.49
76102;SHT30;64830;46.910;6.354;2023-04-01T00:42:32;6.17;82.72
76102;SHT30;64830;46.910;6.354;2023-04-01T00:44:57;6.14;82.71
76102;SHT30;64830;46.910;6.354;2023-04-01T00:47:25;6.14;82.61
76102;SHT30;64830;46.910;6.354;2023-04-01T00:49:53;6.18;82.49
76102;SHT30;64830;46.910;6.354;2023-04-01T00:52:22;6.18;82.60
76102;SHT30;64830;46.910;6.354;2023-04-01T00:54:53;6.20;82.73
76102;SHT30;64830;46.910;6.354;2023-04-01T00:57:32;6.20;82.67
76102;SHT30;64830;46.910;6.354;2023-04-01T00:59:58;6.18;82.49
76102;SHT30;64830;46.910;6.354;2023-04-01T01:02:25;6.18;82.26
76102;SHT30;64830;46.910;6.354;2023-04-01T01:04:50;6.14;82.36
76102;SHT30;64830;46.910;6.354;2023-04-01T01:10:19;6.14;82.02
76102;SHT30;64830;46.910;6.354;2023-04-01T01:13:16;6.07;81.86
76102;SHT30;64830;46.910;6.354;2023-04-01T01:16:07;5.97;81.43
76102;SHT30;64830;46.910;6.354;2023-04-01T01:18:41;5.93;82.11
76102;SHT30;64830;46.910;6.354;2023-04-01T01:24:46;5.88;81.56
76102;SHT30;64830;46.910;6.354;2023-04-01T01:27:18;5.79;81.53
76102;SHT30;64830;46.910;6.354;2023-04-01T01:30:08;5.79;81.79
76102;SHT30;64830;46.910;6.354;2023-04-01T01:33:19;5.78;81.51
76102;SHT30;64830;46.910;6.354;2023-04-01T01:35:24;5.80;81.82
76102;SHT30;64830;46.910;6.354;2023-04-01T01:37:55;5.80;81.95
76102;SHT30;64830;46.910;6.354;2023-04-01T01:40:24;5.86;81.83
76102;SHT30;64830;46.910;6.354;2023-04-01T01:42:54;5.86;81.80
76102;SHT30;64830;46.910;6.354;2023-04-01T01:45:21;5.92;81.75
76102;SHT30;64830;46.910;6.354;2023-04-01T01:47:50;5.90;81.72
76102;SHT30;64830;46.910;6.354;2023-04-01T01:50:17;5.86;82.05
76102;SHT30;64830;46.910;6.354;2023-04-01T01:52:43;5.83;81.88
76102;SHT30;64830;46.910;6.354;2023-04-01T01:55:28;5.79;82.26
76102;SHT30;64830;46.910;6.354;2023-04-01T01:57:58;5.75;82.00
76102;SHT30;64830;46.910;6.354;2023-04-01T02:00:26;5.73;82.24
76102;SHT30;64830;46.910;6.354;2023-04-01T02:02:52;5.75;82.13
76102;SHT30;64830;46.910;6.354;2023-04-01T02:05:21;5.75;81.87
76102;SHT30;64830;46.910;6.354;2023-04-01T02:07:54;5.78;81.99
76102;SHT30;64830;46.910;6.354;2023-04-01T02:10:25;5.75;82.18
76102;SHT30;64830;46.910;6.354;2023-04-01T02:12:56;5.75;82.36
76102;SHT30;64830;46.910;6.354;2023-04-01T02:15:26;5.75;82.41
76102;SHT30;64830;46.910;6.354;2023-04-01T02:17:55;5.76;82.45
76102;SHT30;64830;46.910;6.354;2023-04-01T02:20:23;5.76;82.52
76102;SHT30;64830;46.910;6.354;2023-04-01T02:22:52;5.73;82.82
76102;SHT30;64830;46.910;6.354;2023-04-01T02:25:22;5.71;83.05
76102;SHT30;64830;46.910;6.354;2023-04-01T02:27:49;5.65;82.79
76102;SHT30;64830;46.910;6.354;2023-04-01T02:30:16;5.63;82.95
76102;SHT30;64830;46.910;6.354;2023-04-01T02:32:42;5.65;83.26
76102;SHT30;64830;46.910;6.354;2023-04-01T02:35:10;5.63;83.30
76102;SHT30;64830;46.910;6.354;2023-04-01T02:37:37;5.62;83.80
76102;SHT30;64830;46.910;6.354;2023-04-01T02:40:04;5.62;84.23
76102;SHT30;64830;46.910;6.354;2023-04-01T02:42:32;5.61;84.22
76102;SHT30;64830;46.910;6.354;2023-04-01T02:44:57;5.58;83.77
76102;SHT30;64830;46.910;6.354;2023-04-01T02:47:23;5.58;83.88
76102;SHT30;64830;46.910;6.354;2023-04-01T02:49:48;5.58;83.52
76102;SHT30;64830;46.910;6.354;2023-04-01T02:52:13;5.56;83.56
76102;SHT30;64830;46.910;6.354;2023-04-01T02:54:39;5.56;83.36
76102;SHT30;64830;46.910;6.354;2023-04-01T02:57:04;5.54;83.51
76102;SHT30;64830;46.910;6.354;2023-04-01T02:59:30;5.58;83.55
76102;SHT30;64830;46.910;6.354;2023-04-01T03:01:55;5.56;83.22
76102;SHT30;64830;46.910;6.354;2023-04-01T03:04:21;5.54;83.64
76102;SHT30;64830;46.910;6.354;2023-04-01T03:06:46;5.55;83.56
76102;SHT30;64830;46.910;6.354;2023-04-01T03:09:11;5.56;84.13
76102;SHT30;64830;46.910;6.354;2023-04-01T03:11:37;5.58;84.26
76102;SHT30;64830;46.910;6.354;2023-04-01T03:14:02;5.56;84.04
76102;SHT30;64830;46.910;6.354;2023-04-01T03:16:27;5.55;85.19
76102;SHT30;64830;46.910;6.354;2023-04-01T03:18:53;5.55;84.40
76102;SHT30;64830;46.910;6.354;2023-04-01T03:21:22;5.61;84.10
76102;SHT30;64830;46.910;6.354;2023-04-01T03:23:48;5.61;84.13
76102;SHT30;64830;46.910;6.354;2023-04-01T03:26:14;5.59;84.10
76102;SHT30;64830;46.910;6.354;2023-04-01T03:28:40;5.59;84.06
76102;SHT30;64830;46.910;6.354;2023-04-01T03:31:05;5.56;84.13
76102;SHT30;64830;46.910;6.354;2023-04-01T03:33:31;5.56;83.82
76102;SHT30;64830;46.910;6.354;2023-04-01T03:35:57;5.56;84.21
76102;SHT30;64830;46.910;6.354;2023-04-01T03:38:23;5.56;84.41
76102;SHT30;64830;46.910;6.354;2023-04-01T03:40:48;5.54;84.43
76102;SHT30;64830;46.910;6.354;2023-04-01T03:43:14;5.55;84.93
76102;SHT30;64830;46.910;6.354;2023-04-01T03:45:46;5.55;84.26
76102;SHT30;64830;46.910;6.354;2023-04-01T03:48:11;5.59;84.35
76102;SHT30;64830;46.910;6.354;2023-04-01T03:50:37;5.59;83.96
76102;SHT30;64830;46.910;6.354;2023-04-01T03:53:02;5.59;83.55
76102;SHT30;64830;46.910;6.354;2023-04-01T03:55:27;5.56;83.72
76102;SHT30;64830;46.910;6.354;2023-04-01T03:57:53;5.59;83.81
76102;SHT30;64830;46.910;6.354;2023-04-01T04:00:18;5.54;84.01
76102;SHT30;64830;46.910;6.354;2023-04-01T04:02:44;5.47;84.43
76102;SHT30;64830;46.910;6.354;2023-04-01T04:05:10;5.44;84.62
76102;SHT30;64830;46.910;6.354;2023-04-01T04:07:35;5.45;84.36
76102;SHT30;64830;46.910;6.354;2023-04-01T04:10:01;5.50;84.55
76102;SHT30;64830;46.910;6.354;2023-04-01T04:12:26;5.48;84.77
76102;SHT30;64830;46.910;6.354;2023-04-01T04:14:52;5.50;85.29
76102;SHT30;64830;46.910;6.354;2023-04-01T04:17:17;5.48;85.01
76102;SHT30;64830;46.910;6.354;2023-04-01T04:19:43;5.44;85.79
76102;SHT30;64830;46.910;6.354;2023-04-01T04:22:08;5.43;85.82
76102;SHT30;64830;46.910;6.354;2023-04-01T04:24:34;5.43;85.85
76102;SHT30;64830;46.910;6.354;2023-04-01T04:27:00;5.43;85.49
76102;SHT30;64830;46.910;6.354;2023-04-01T04:29:25;5.41;85.52
76102;SHT30;64830;46.910;6.354;2023-04-01T04:31:51;5.41;85.52
76102;SHT30;64830;46.910;6.354;2023-04-01T04:34:16;5.48;85.60
76102;SHT30;64830;46.910;6.354;2023-04-01T04:36:43;5.48;85.70
76102;SHT30;64830;46.910;6.354;2023-04-01T04:39:09;5.52;85.72
76102;SHT30;64830;46.910;6.354;2023-04-01T04:41:37;5.48;85.62
76102;SHT30;64830;46.910;6.354;2023-04-01T04:44:03;5.50;86.03
76102;SHT30;64830;46.910;6.354;2023-04-01T04:46:29;5.48;85.90
76102;SHT30;64830;46.910;6.354;2023-04-01T04:48:55;5.47;86.20
76102;SHT30;64830;46.910;6.354;2023-04-01T04:51:21;5.48;86.11
76102;SHT30;64830;46.910;6.354;2023-04-01T04:53:47;5.52;85.80
76102;SHT30;64830;46.910;6.354;2023-04-01T04:56:12;5.50;86.19
76102;SHT30;64830;46.910;6.354;2023-04-01T04:58:39;5.47;86.04
76102;SHT30;64830;46.910;6.354;2023-04-01T05:01:10;5.52;85.98
76102;SHT30;64830;46.910;6.354;2023-04-01T05:03:36;5.54;86.06
76102;SHT30;64830;46.910;6.354;2023-04-01T05:06:02;5.56;86.02
76102;SHT30;64830;46.910;6.354;2023-04-01T05:08:27;5.59;86.31
76102;SHT30;64830;46.910;6.354;2023-04-01T05:10:52;5.56;86.82
76102;SHT30;64830;46.910;6.354;2023-04-01T05:13:18;5.54;86.73
76102;SHT30;64830;46.910;6.354;2023-04-01T05:15:44;5.51;86.92
76102;SHT30;64830;46.910;6.354;2023-04-01T05:18:09;5.54;86.75
76102;SHT30;64830;46.910;6.354;2023-04-01T05:20:35;5.52;86.70
76102;SHT30;64830;46.910;6.354;2023-04-01T05:23:00;5.56;86.61
76102;SHT30;64830;46.910;6.354;2023-04-01T05:25:26;5.56;86.64
76102;SHT30;64830;46.910;6.354;2023-04-01T05:27:51;5.59;86.47
76102;SHT30;64830;46.910;6.354;2023-04-01T05:30:17;5.59;86.26
76102;SHT30;64830;46.910;6.354;2023-04-01T05:32:43;5.59;86.25
76102;SHT30;64830;46.910;6.354;2023-04-01T05:35:09;5.62;86.37
76102;SHT30;64830;46.910;6.354;2023-04-01T05:37:35;5.61;86.06
76102;SHT30;64830;46.910;6.354;2023-04-01T05:40:00;5.63;86.24
76102;SHT30;64830;46.910;6.354;2023-04-01T05:42:26;5.61;86.55
76102;SHT30;64830;46.910;6.354;2023-04-01T05:44:51;5.61;86.69
76102;SHT30;64830;46.910;6.354;2023-04-01T05:47:17;5.61;86.57
76102;SHT30;64830;46.910;6.354;2023-04-01T05:49:42;5.61;86.44
76102;SHT30;64830;46.910;6.354;2023-04-01T05:52:08;5.59;87.03
76102;SHT30;64830;46.910;6.354;2023-04-01T05:54:33;5.61;86.74
76102;SHT30;64830;46.910;6.354;2023-04-01T05:56:58;5.63;86.70
76102;SHT30;64830;46.910;6.354;2023-04-01T05:59:24;5.62;87.13
76102;SHT30;64830;46.910;6.354;2023-04-01T06:01:50;5.58;87.22
76102;SHT30;64830;46.910;6.354;2023-04-01T06:04:17;5.54;87.62
76102;SHT30;64830;46.910;6.354;2023-04-01T06:06:43;5.58;87.35
76102;SHT30;64830;46.910;6.354;2023-04-01T06:09:18;5.58;87.29
76102;SHT30;64830;46.910;6.354;2023-04-01T06:15:01;5.56;87.70
76102;SHT30;64830;46.910;6.354;2023-04-01T06:34:17;5.72;86.29
76102;SHT30;64830;46.910;6.354;2023-04-01T06:39:36;5.79;86.39
76102;SHT30;64830;46.910;6.354;2023-04-01T06:42:17;5.83;86.78
76102;SHT30;64830;46.910;6.354;2023-04-01T06:47:38;5.85;87.12
76102;SHT30;64830;46.910;6.354;2023-04-01T06:50:26;5.85;87.22
76102;SHT30;64830;46.910;6.354;2023-04-01T06:53:04;5.83;87.14
76102;SHT30;64830;46.910;6.354;2023-04-01T06:55:39;5.85;87.57
76102;SHT30;64830;46.910;6.354;2023-04-01T06:58:17;5.83;87.40
76102;SHT30;64830;46.910;6.354;2023-04-01T07:00:46;5.85;87.38
76102;SHT30;64830;46.910;6.354;2023-04-01T07:03:18;5.85;87.40
76102;SHT30;64830;46.910;6.354;2023-04-01T07:05:45;5.86;87.22
76102;SHT30;64830;46.910;6.354;2023-04-01T07:08:18;5.85;87.16
76102;SHT30;64830;46.910;6.354;2023-04-01T07:10:53;5.85;86.99
76102;SHT30;64830;46.910;6.354;2023-04-01T07:13:29;5.89;86.74
76102;SHT30;64830;46.910;6.354;2023-04-01T07:16:05;5.95;86.19
76102;SHT30;64830;46.910;6.354;2023-04-01T07:18:50;6.02;86.07
76102;SHT30;64830;46.910;6.354;2023-04-01T07:21:27;6.09;85.16
76102;SHT30;64830;46.910;6.354;2023-04-01T07:23:57;6.13;85.12
76102;SHT30;64830;46.910;6.354;2023-04-01T07:26:25;6.11;84.74
76102;SHT30;64830;46.910;6.354;2023-04-01T07:28:52;6.13;85.53
76102;SHT30;64830;46.910;6.354;2023-04-01T07:34:21;6.18;85.60
76102;SHT30;64830;46.910;6.354;2023-04-01T07:36:57;6.23;86.01
76102;SHT30;64830;46.910;6.354;2023-04-01T07:42:40;6.17;86.40
76102;SHT30;64830;46.910;6.354;2023-04-01T07:51:02;6.23;86.81
76102;SHT30;64830;46.910;6.354;2023-04-01T07:53:49;6.30;86.62
76102;SHT30;64830;46.910;6.354;2023-04-01T07:56:54;6.34;86.30
76102;SHT30;64830;46.910;6.354;2023-04-01T07:59:31;6.33;86.22
76102;SHT30;64830;46.910;6.354;2023-04-01T08:07:25;6.37;86.82
76102;SHT30;64830;46.910;6.354;2023-04-01T08:10:11;6.33;86.67
76102;SHT30;64830;46.910;6.354;2023-04-01T08:13:09;6.34;86.76
76102;SHT30;64830;46.910;6.354;2023-04-01T08:21:25;6.34;86.41
76102;SHT30;64830;46.910;6.354;2023-04-01T08:23:56;6.34;86.83
76102;SHT30;64830;46.910;6.354;2023-04-01T08:28:56;6.38;86.50
76102;SHT30;64830;46.910;6.354;2023-04-01T08:31:49;6.41;86.48
76102;SHT30;64830;46.910;6.354;2023-04-01T08:34:24;6.46;87.14
76102;SHT30;64830;46.910;6.354;2023-04-01T08:36:58;6.48;87.30
76102;SHT30;64830;46.910;6.354;2023-04-01T08:39:29;6.45;87.36
76102;SHT30;64830;46.910;6.354;2023-04-01T09:09:25;6.38;86.22
76102;SHT30;64830;46.910;6.354;2023-04-01T09:15:27;6.35;86.86
76102;SHT30;64830;46.910;6.354;2023-04-01T09:18:21;6.48;87.12
76102;SHT30;64830;46.910;6.354;2023-04-01T09:26:57;6.72;86.48
76102;SHT30;64830;46.910;6.354;2023-04-01T09:35:55;6.75;86.04
76102;SHT30;64830;46.910;6.354;2023-04-01T09:41:21;6.76;85.99
76102;SHT30;64830;46.910;6.354;2023-04-01T09:44:23;6.75;85.15
76102;SHT30;64830;46.910;6.354;2023-04-01T09:52:44;6.71;82.89
76102;SHT30;64830;46.910;6.354;2023-04-01T09:55:55;6.75;83.23
76102;SHT30;64830;46.910;6.354;2023-04-01T10:01:57;7.10;82.17
76102;SHT30;64830;46.910;6.354;2023-04-01T10:16:15;7.38;83.42
76102;SHT30;64830;46.910;6.354;2023-04-01T10:19:09;7.70;82.10
76102;SHT30;64830;46.910;6.354;2023-04-01T10:22:43;7.77;79.67
76102;SHT30;64830;46.910;6.354;2023-04-01T10:35:29;7.80;78.01
76102;SHT30;64830;46.910;6.354;2023-04-01T11:25:37;8.72;76.94
76102;SHT30;64830;46.910;6.354;2023-04-01T11:31:11;8.46;77.43
76102;SHT30;64830;46.910;6.354;2023-04-01T11:36:55;8.32;78.36
76102;SHT30;64830;46.910;6.354;2023-04-01T11:44:53;8.11;77.65
76102;SHT30;64830;46.910;6.354;2023-04-01T12:01:23;8.41;78.74
76102;SHT30;64830;46.910;6.354;2023-04-01T12:18:24;8.80;74.69
76102;SHT30;64830;46.910;6.354;2023-04-01T12:37:13;9.12;75.96
76102;SHT30;64830;46.910;6.354;2023-04-01T12:42:52;9.53;76.08
76102;SHT30;64830;46.910;6.354;2023-04-01T12:45:35;9.76;71.71
76102;SHT30;64830;46.910;6.354;2023-04-01T12:48:16;9.97;75.44
76102;SHT30;64830;46.910;6.354;2023-04-01T12:50:53;10.15;73.51
76102;SHT30;64830;46.910;6.354;2023-04-01T12:53:36;10.32;71.13
76102;SHT30;64830;46.910;6.354;2023-04-01T12:56:12;10.44;72.32
76102;SHT30;64830;46.910;6.354;2023-04-01T13:15:10;10.04;69.51
76102;SHT30;64830;46.910;6.354;2023-04-01T13:20:41;9.65;70.46
76102;SHT30;64830;46.910;6.354;2023-04-01T13:23:24;9.66;71.47
76102;SHT30;64830;46.910;6.354;2023-04-01T13:26:12;9.73;71.48
76102;SHT30;64830;46.910;6.354;2023-04-01T13:28:49;9.69;72.44
76102;SHT30;64830;46.910;6.354;2023-04-01T13:37:19;9.46;73.36
76102;SHT30;64830;46.910;6.354;2023-04-01T13:42:33;8.97;74.60
76102;SHT30;64830;46.910;6.354;2023-04-01T13:45:23;8.77;74.69
76102;SHT30;64830;46.910;6.354;2023-04-01T13:50:34;8.60;77.16
76102;SHT30;64830;46.910;6.354;2023-04-01T14:01:49;8.80;75.67
76102;SHT30;64830;46.910;6.354;2023-04-01T14:15:37;8.60;76.80
76102;SHT30;64830;46.910;6.354;2023-04-01T14:18:33;8.67;78.12
76102;SHT30;64830;46.910;6.354;2023-04-01T14:28:53;8.66;77.40
76102;SHT30;64830;46.910;6.354;2023-04-01T14:31:48;8.49;78.38
76102;SHT30;64830;46.910;6.354;2023-04-01T14:37:15;8.56;79.07
76102;SHT30;64830;46.910;6.354;2023-04-01T14:40:05;8.70;78.99
76102;SHT30;64830;46.910;6.354;2023-04-01T14:48:56;9.35;73.93
76102;SHT30;64830;46.910;6.354;2023-04-01T14:51:23;9.36;76.56
76102;SHT30;64830;46.910;6.354;2023-04-01T14:54:18;9.35;74.21
76102;SHT30;64830;46.910;6.354;2023-04-01T14:57:23;9.27;74.94
76102;SHT30;64830;46.910;6.354;2023-04-01T15:00:13;9.17;76.47
76102;SHT30;64830;46.910;6.354;2023-04-01T15:08:01;9.59;77.31
76102;SHT30;64830;46.910;6.354;2023-04-01T15:19:00;9.77;75.14
76102;SHT30;64830;46.910;6.354;2023-04-01T15:24:24;9.57;75.17
76102;SHT30;64830;46.910;6.354;2023-04-01T15:32:29;9.36;75.19
76102;SHT30;64830;46.910;6.354;2023-04-01T15:35:15;9.38;75.91
76102;SHT30;64830;46.910;6.354;2023-04-01T15:40:47;9.35;75.59
76102;SHT30;64830;46.910;6.354;2023-04-01T15:54:23;9.98;70.95
76102;SHT30;64830;46.910;6.354;2023-04-01T15:57:13;10.00;73.45
76102;SHT30;64830;46.910;6.354;2023-04-01T16:05:19;9.90;72.35
76102;SHT30;64830;46.910;6.354;2023-04-01T16:08:10;9.65;70.81
76102;SHT30;64830;46.910;6.354;2023-04-01T16:13:41;9.25;72.81
76102;SHT30;64830;46.910;6.354;2023-04-01T16:21:48;8.84;74.17
76102;SHT30;64830;46.910;6.354;2023-04-01T16:24:38;8.72;73.70
76102;SHT30;64830;46.910;6.354;2023-04-01T16:27:18;8.60;74.38
76102;SHT30;64830;46.910;6.354;2023-04-01T16:30:02;8.38;76.31
76102;SHT30;64830;46.910;6.354;2023-04-01T16:32:31;8.22;75.97
76102;SHT30;64830;46.910;6.354;2023-04-01T16:38:18;9.29;73.68
76102;SHT30;64830;46.910;6.354;2023-04-01T16:41:05;10.05;72.48
76102;SHT30;64830;46.910;6.354;2023-04-01T16:51:23;16.12;60.25
76102;SHT30;64830;46.910;6.354;2023-04-01T16:56:41;13.65;62.13
76102;SHT30;64830;46.910;6.354;2023-04-01T16:59:19;12.72;63.57
76102;SHT30;64830;46.910;6.354;2023-04-01T17:24:14;15.07;62.19
76102;SHT30;64830;46.910;6.354;2023-04-01T17:35:26;15.24;58.12
76102;SHT30;64830;46.910;6.354;2023-04-01T17:39:18;14.05;59.66
76102;SHT30;64830;46.910;6.354;2023-04-01T17:43:59;12.22;62.82
76102;SHT30;64830;46.910;6.354;2023-04-01T18:00:39;10.18;68.83
76102;SHT30;64830;46.910;6.354;2023-04-01T18:06:11;9.76;69.52
76102;SHT30;64830;46.910;6.354;2023-04-01T18:11:39;9.49;71.18
76102;SHT30;64830;46.910;6.354;2023-04-01T18:15:07;9.38;71.26
76102;SHT30;64830;46.910;6.354;2023-04-01T18:17:27;9.29;71.74
76102;SHT30;64830;46.910;6.354;2023-04-01T18:22:48;9.17;72.30
76102;SHT30;64830;46.910;6.354;2023-04-01T18:25:28;9.14;72.84
76102;SHT30;64830;46.910;6.354;2023-04-01T18:30:32;8.86;73.38
76102;SHT30;64830;46.910;6.354;2023-04-01T18:33:05;8.77;74.14
76102;SHT30;64830;46.910;6.354;2023-04-01T18:35:45;8.67;74.06
76102;SHT30;64830;46.910;6.354;2023-04-01T18:38:15;8.56;75.15
76102;SHT30;64830;46.910;6.354;2023-04-01T18:51:44;8.24;75.85
76102;SHT30;64830;46.910;6.354;2023-04-01T18:54:23;8.18;76.21
76102;SHT30;64830;46.910;6.354;2023-04-01T18:57:20;8.14;76.41
76102;SHT30;64830;46.910;6.354;2023-04-01T18:59:55;8.14;76.44
76102;SHT30;64830;46.910;6.354;2023-04-01T19:02:27;8.13;76.12
76102;SHT30;64830;46.910;6.354;2023-04-01T19:15:58;7.97;77.47
76102;SHT30;64830;46.910;6.354;2023-04-01T19:24:16;7.79;77.86
76102;SHT30;64830;46.910;6.354;2023-04-01T19:34:57;7.68;78.10
76102;SHT30;64830;46.910;6.354;2023-04-01T19:45:23;7.69;78.60
76102;SHT30;64830;46.910;6.354;2023-04-01T19:50:40;7.65;78.80
76102;SHT30;64830;46.910;6.354;2023-04-01T19:56:16;7.63;78.84
76102;SHT30;64830;46.910;6.354;2023-04-01T20:01:22;7.63;79.02
76102;SHT30;64830;46.910;6.354;2023-04-01T20:04:04;7.63;78.79
76102;SHT30;64830;46.910;6.354;2023-04-01T20:09:41;7.66;79.28
76102;SHT30;64830;46.910;6.354;2023-04-01T20:12:32;7.58;79.23
76102;SHT30;64830;46.910;6.354;2023-04-01T20:15:04;7.56;79.64
76102;SHT30;64830;46.910;6.354;2023-04-01T20:25:26;7.40;80.87
76102;SHT30;64830;46.910;6.354;2023-04-01T20:28:14;7.30;80.56
76102;SHT30;64830;46.910;6.354;2023-04-01T20:31:12;7.28;80.76
76102;SHT30;64830;46.910;6.354;2023-04-01T20:45:14;7.20;80.80
76102;SHT30;64830;46.910;6.354;2023-04-01T20:50:48;7.17;80.53
76102;SHT30;64830;46.910;6.354;2023-04-01T20:59:22;7.13;81.05
76102;SHT30;64830;46.910;6.354;2023-04-01T21:02:05;7.13;81.05
76102;SHT30;64830;46.910;6.354;2023-04-01T21:07:31;7.04;81.15
76102;SHT30;64830;46.910;6.354;2023-04-01T21:10:12;7.04;80.96
76102;SHT30;64830;46.910;6.354;2023-04-01T21:15:39;7.01;81.60
76102;SHT30;64830;46.910;6.354;2023-04-01T21:18:18;6.96;81.13
76102;SHT30;64830;46.910;6.354;2023-04-01T21:29:07;6.68;82.58
76102;SHT30;64830;46.910;6.354;2023-04-01T21:40:25;6.55;83.30
76102;SHT30;64830;46.910;6.354;2023-04-01T21:48:52;6.46;84.49
76102;SHT30;64830;46.910;6.354;2023-04-01T21:54:35;6.40;83.93
76102;SHT30;64830;46.910;6.354;2023-04-01T22:05:28;6.38;84.76
76102;SHT30;64830;46.910;6.354;2023-04-01T22:07:59;6.34;84.66
76102;SHT30;64830;46.910;6.354;2023-04-01T22:16:02;6.31;84.21
76102;SHT30;64830;46.910;6.354;2023-04-01T22:18:38;6.23;84.23
76102;SHT30;64830;46.910;6.354;2023-04-01T22:21:36;6.23;84.22
76102;SHT30;64830;46.910;6.354;2023-04-01T22:25:15;6.23;84.00
76102;SHT30;64830;46.910;6.354;2023-04-01T22:27:33;6.20;84.10
76102;SHT30;64830;46.910;6.354;2023-04-01T22:30:23;6.20;84.05
76102;SHT30;64830;46.910;6.354;2023-04-01T22:35:32;6.27;84.01
76102;SHT30;64830;46.910;6.354;2023-04-01T22:43:44;6.27;83.70
76102;SHT30;64830;46.910;6.354;2023-04-01T22:46:16;6.25;83.51
76102;SHT30;64830;46.910;6.354;2023-04-01T22:48:55;6.28;83.64
76102;SHT30;64830;46.910;6.354;2023-04-01T22:51:54;6.33;83.43
76102;SHT30;64830;46.910;6.354;2023-04-01T22:54:45;6.33;83.47
76102;SHT30;64830;46.910;6.354;2023-04-01T23:00:00;6.34;83.40
76102;SHT30;64830;46.910;6.354;2023-04-01T23:05:18;6.28;83.69
76102;SHT30;64830;46.910;6.354;2023-04-01T23:10:42;6.23;84.04
76102;SHT30;64830;46.910;6.354;2023-04-01T23:13:18;6.25;84.38
76102;SHT30;64830;46.910;6.354;2023-04-01T23:15:45;6.25;84.32
76102;SHT30;64830;46.910;6.354;2023-04-01T23:21:12;6.27;83.84
76102;SHT30;64830;46.910;6.354;2023-04-01T23:23:48;6.24;83.48
76102;SHT30;64830;46.910;6.354;2023-04-01T23:31:32;6.28;83.16
76102;SHT30;64830;46.910;6.354;2023-04-01T23:39:26;6.31;83.05
76102;SHT30;64830;46.910;6.354;2023-04-01T23:41:58;6.31;82.93
76102;SHT30;64830;46.910;6.354;2023-04-01T23:44:25;6.31;82.85
76102;SHT30;64830;46.910;6.354;2023-04-01T23:46:53;6.31;83.15
76102;SHT30;64830;46.910;6.354;2023-04-01T23:52:12;6.33;82.92
76102;SHT30;64830;46.910;6.354;2023-04-01T23:57:27;6.35;83.13
